MYGF

Grand Bahama International Airport

Freeport, , Bahamas
TAF MYGF 230400Z 2306/2406 09014KT 9999 BKN035
Issued Valid From Valid To
Jan-23 @ 04:00 UTC
(3 hours ago)
Jan-23 @ 06:00 UTC
(an hour ago)
Jan-24 @ 06:00 UTC
(in 23 hours)
Jan-23 @ 06:00 to Jan-24 @ 06:00
TAF MYGF 230400Z 2306/2406 09014KT 9999 BKN035
Wind Visibility Clouds
90° at 14 knots 10,000+ meters
  • Broken at 3,500' AGL
TAF MYGF 230400Z 2306/2406 09014KT 9999 BKN035
Issued Jan-23 @ 04:00 UTC
(3 hours ago)
Valid From Jan-23 @ 06:00 UTC
(an hour ago)
Valid To Jan-24 @ 06:00 UTC
(in 23 hours)
Jan-23 @ 06:00 - Jan-24 @ 06:00
Wind Visibility
90° at 14 knots 10,000+ meters
Clouds
  • Broken at 3,500' AGL